Nashville, Wisconsin
Current Conditions -  °F | °C
As of 12:55 PM on Friday 24 Oct 2014 (Local Time) from KAIG Reporting Station
Overcast Overcast  
Wind Chill: 45°   Ceiling: 500
Heat Index: 49°   Visibility: 10mi
Dew Point: 49°   Wind: 7mph
Humidity: 100%   Direction: 220°SW
Pressure: 29.95"   Gusts: NA
Location:  45.4952°N, 88.9042°W
Report Text: KAIG 241755Z AUTO 22006KT 10SM OVC005 09/09 A2995 RMK AO2 T00920092 10093 20055
Loading
Personal Weather Stations






























Interactive Weather Map
Tropical Storm Tracking
New forecast layout! Learn more

10-Day Weather Forecast

Advertisements
Track Severe Weather on mobile